Time;durP1;ratioP1;P1;durP2;ratioP2;P2;SDS_P1;SDS_P2;PMS_P1;PMS_P2;Temp;Humidity;BMP_temperature;BMP_pressure;BME280_temperature;BME280_humidity;BME280_pressure;Samples;Min_cycle;Max_cycle;Signal;HPM_P1;HPM_P2
2023/08/14 00:00:19;;;;;;;;;;;;;;;;;;5060241;28;4818;-57
2023/08/14 00:02:44;;;;;;;;;;;;;;;;;;5069197;28;5006;-57
2023/08/14 00:05:09;;;;;;;;;;;;;;;;;;5072013;28;5047;-58
2023/08/14 00:07:35;;;;;;;;;;;;;;;;;;5067833;28;5135;-57
2023/08/14 00:10:00;;;;;;;;;;;;;;;;;;5069528;28;1494;-57
2023/08/14 00:12:25;;;;;;;;;;;;;;;;;;5065899;28;4410;-57
2023/08/14 00:14:50;;;;;;;;;;;;;;;;;;5069068;28;4834;-57
2023/08/14 00:17:16;;;;;;;;;;;;;;;;;;5063277;28;4664;-57
2023/08/14 00:19:41;;;;;;;;;;;;;;;;;;5069468;28;5158;-57
2023/08/14 00:22:07;;;;;;;;;;;;;;;;;;5063788;28;1986;-57
2023/08/14 00:24:32;;;;;;;;;;;;;;;;;;5061456;28;4474;-57
2023/08/14 00:26:57;;;;;;;;;;;;;;;;;;5059330;28;5113;-57
2023/08/14 00:29:22;;;;;;;;;;;;;;;;;;5068740;28;5058;-56
2023/08/14 00:31:48;;;;;;;;;;;;;;;;;;5069008;28;4448;-57
2023/08/14 00:34:13;;;;;;;;;;;;;;;;;;5069474;28;1013;-57
2023/08/14 00:36:38;;;;;;;;;;;;;;;;;;5059729;28;4875;-59
2023/08/14 00:39:03;;;;;;;;;;;;;;;;;;5066760;28;4828;-57
2023/08/14 00:41:30;;;;;;;;;;;;;;;;;;5068436;28;5183;-57
2023/08/14 00:43:55;;;;;;;;;;;;;;;;;;5063585;28;4903;-57
2023/08/14 00:46:21;;;;;;;;;;;;;;;;;;5068466;28;5154;-57
2023/08/14 00:48:46;;;;;;;;;;;;;;;;;;5067029;28;1159;-57
2023/08/14 00:51:11;;;;;;;;;;;;;;;;;;5050061;28;5044;-57
2023/08/14 00:53:36;;;;;;;;;;;;;;;;;;5064748;28;4993;-57
2023/08/14 00:56:02;;;;;;;;;;;;;;;;;;5068069;28;5276;-57
2023/08/14 00:58:27;;;;;;;;;;;;;;;;;;5068249;28;5027;-57
2023/08/14 01:00:53;;;;;;;;;;;;;;;;;;5069267;28;1085;-56
2023/08/14 01:03:18;;;;;;;;;;;;;;;;;;5058461;28;4478;-56
2023/08/14 01:05:44;;;;;;;;;;;;;;;;;;5063969;28;4933;-57
2023/08/14 01:08:09;;;;;;;;;;;;;;;;;;5057760;28;4477;-58
2023/08/14 01:10:43;;;;;;;;;;;;;;;;;;5063112;28;5010;-56
2023/08/14 01:13:27;;;;;;;;;;;;;;;;;;5063061;28;1500;-56
2023/08/14 01:15:53;;;;;;;;;;;;;;;;;;5067307;28;4463;-57
2023/08/14 01:18:18;;;;;;;;;;;;;;;;;;5049310;28;5108;-57
2023/08/14 01:20:44;;;;;;;;;;;;;;;;;;5059734;28;5002;-57
2023/08/14 01:23:17;;;;;;;;;;;;;;;;;;5049694;28;4682;-57
2023/08/14 01:25:42;;;;;;;;;;;;;;;;;;5069563;28;5100;-57
2023/08/14 01:28:08;;;;;;;;;;;;;;;;;;5068757;28;1081;-58
2023/08/14 01:30:33;;;;;;;;;;;;;;;;;;5067973;28;5040;-57
2023/08/14 01:32:59;;;;;;;;;;;;;;;;;;5062385;28;4577;-58
2023/08/14 01:35:24;;;;;;;;;;;;;;;;;;5062418;28;4875;-57
2023/08/14 01:37:59;;;;;;;;;;;;;;;;;;5062664;28;4920;-57
2023/08/14 01:40:40;;;;;;;;;;;;;;;;;;5066378;28;5022;-57
2023/08/14 01:43:07;;;;;;;;;;;;;;;;;;5067300;28;1922;-57
2023/08/14 01:45:32;;;;;;;;;;;;;;;;;;5067408;28;5007;-57
2023/08/14 01:47:58;;;;;;;;;;;;;;;;;;5039990;28;4636;-57
2023/08/14 01:50:23;;;;;;;;;;;;;;;;;;5082979;28;4503;-57
2023/08/14 01:52:48;;;;;;;;;;;;;;;;;;5067407;28;5115;-58
2023/08/14 01:55:15;;;;;;;;;;;;;;;;;;5070430;28;5116;-57
2023/08/14 01:57:40;;;;;;;;;;;;;;;;;;5060250;28;4638;-57
2023/08/14 02:00:08;;;;;;;;;;;;;;;;;;5068091;28;4439;-57
2023/08/14 02:02:33;;;;;;;;;;;;;;;;;;5054716;28;4604;-57
2023/08/14 02:04:58;;;;;;;;;;;;;;;;;;5060052;28;5880;-57
2023/08/14 02:07:23;;;;;;;;;;;;;;;;;;5062793;28;5298;-58
2023/08/14 02:09:49;;;;;;;;;;;;;;;;;;5061531;28;1121;-57
2023/08/14 02:12:14;;;;;;;;;;;;;;;;;;5066769;28;5047;-57
2023/08/14 02:14:39;;;;;;;;;;;;;;;;;;5060702;28;5059;-57
2023/08/14 02:17:04;;;;;;;;;;;;;;;;;;5055799;28;4959;-57
2023/08/14 02:19:29;;;;;;;;;;;;;;;;;;5067574;28;5358;-57
2023/08/14 02:21:55;;;;;;;;;;;;;;;;;;5068263;28;1749;-56
2023/08/14 02:24:20;;;;;;;;;;;;;;;;;;5058659;28;5082;-57
2023/08/14 02:26:45;;;;;;;;;;;;;;;;;;5067569;28;4854;-57
2023/08/14 02:29:10;;;;;;;;;;;;;;;;;;5062482;28;5066;-57
2023/08/14 02:31:36;;;;;;;;;;;;;;;;;;5059338;28;4766;-57
2023/08/14 02:34:01;;;;;;;;;;;;;;;;;;5068044;28;1116;-57
2023/08/14 02:36:26;;;;;;;;;;;;;;;;;;5066681;28;5283;-57
2023/08/14 02:38:55;;;;;;;;;;;;;;;;;;5067730;28;5094;-57
2023/08/14 02:41:20;;;;;;;;;;;;;;;;;;5058144;28;4595;-57
2023/08/14 02:43:45;;;;;;;;;;;;;;;;;;5059365;28;5074;-57
2023/08/14 02:46:11;;;;;;;;;;;;;;;;;;5069011;28;1123;-57
2023/08/14 02:48:36;;;;;;;;;;;;;;;;;;5069340;28;5019;-57
2023/08/14 02:51:01;;;;;;;;;;;;;;;;;;5061710;28;4420;-57
2023/08/14 02:53:26;;;;;;;;;;;;;;;;;;5070718;28;5104;-57
2023/08/14 02:55:52;;;;;;;;;;;;;;;;;;5070391;28;5263;-57
2023/08/14 02:58:17;;;;;;;;;;;;;;;;;;5068474;28;5076;-57
2023/08/14 03:00:44;;;;;;;;;;;;;;;;;;5062559;28;1314;-56
2023/08/14 03:03:09;;;;;;;;;;;;;;;;;;5070477;28;4948;-57
2023/08/14 03:05:34;;;;;;;;;;;;;;;;;;5066054;28;4986;-56
2023/08/14 03:07:59;;;;;;;;;;;;;;;;;;5067743;28;5280;-57
2023/08/14 03:10:25;;;;;;;;;;;;;;;;;;5070599;28;5041;-57
2023/08/14 03:12:50;;;;;;;;;;;;;;;;;;5065001;28;1468;-57
2023/08/14 03:15:16;;;;;;;;;;;;;;;;;;5070028;28;4808;-57
2023/08/14 03:17:41;;;;;;;;;;;;;;;;;;5070988;28;4649;-57
2023/08/14 03:20:09;;;;;;;;;;;;;;;;;;5070687;28;5027;-57
2023/08/14 03:22:35;;;;;;;;;;;;;;;;;;5066929;28;5117;-57
2023/08/14 03:25:00;;;;;;;;;;;;;;;;;;5067685;28;1127;-57
2023/08/14 03:27:25;;;;;;;;;;;;;;;;;;5065411;28;5078;-57
2023/08/14 03:29:50;;;;;;;;;;;;;;;;;;5069953;28;4428;-57
2023/08/14 03:32:16;;;;;;;;;;;;;;;;;;5069689;28;4469;-57
2023/08/14 03:34:41;;;;;;;;;;;;;;;;;;5065433;28;5930;-57
2023/08/14 03:37:06;;;;;;;;;;;;;;;;;;5070634;28;1208;-57
2023/08/14 03:39:31;;;;;;;;;;;;;;;;;;5069569;28;4859;-57
2023/08/14 03:41:56;;;;;;;;;;;;;;;;;;5051700;28;5067;-57
2023/08/14 03:44:22;;;;;;;;;;;;;;;;;;5061003;28;4509;-57
2023/08/14 03:46:47;;;;;;;;;;;;;;;;;;5068055;28;4864;-57
2023/08/14 03:49:13;;;;;;;;;;;;;;;;;;5070183;28;1326;-57
2023/08/14 03:51:38;;;;;;;;;;;;;;;;;;5050992;28;4780;-57
2023/08/14 03:54:04;;;;;;;;;;;;;;;;;;5062389;28;4928;-56
2023/08/14 03:56:29;;;;;;;;;;;;;;;;;;5067431;28;5586;-57
2023/08/14 03:58:54;;;;;;;;;;;;;;;;;;5051171;28;5110;-56
2023/08/14 04:01:20;;;;;;;;;;;;;;;;;;5067529;28;5006;-57
2023/08/14 04:03:45;;;;;;;;;;;;;;;;;;5062837;28;1906;-56
2023/08/14 04:06:10;;;;;;;;;;;;;;;;;;5053374;28;5409;-58
2023/08/14 04:08:35;;;;;;;;;;;;;;;;;;5049394;28;5108;-57
2023/08/14 04:11:01;;;;;;;;;;;;;;;;;;5045023;28;5051;-57
2023/08/14 04:13:26;;;;;;;;;;;;;;;;;;5044329;28;5179;-57
2023/08/14 04:15:59;;;;;;;;;;;;;;;;;;5049733;28;1189;-56
2023/08/14 04:18:24;;;;;;;;;;;;;;;;;;5049152;28;4902;-56
2023/08/14 04:20:49;;;;;;;;;;;;;;;;;;5039938;28;4442;-57
2023/08/14 04:23:15;;;;;;;;;;;;;;;;;;5043744;28;4989;-57
2023/08/14 04:25:40;;;;;;;;;;;;;;;;;;5048776;28;5260;-57
2023/08/14 04:28:05;;;;;;;;;;;;;;;;;;5049837;28;1160;-58
2023/08/14 04:30:30;;;;;;;;;;;;;;;;;;5047747;28;4625;-57
2023/08/14 04:32:56;;;;;;;;;;;;;;;;;;5049216;28;4891;-57
2023/08/14 04:35:21;;;;;;;;;;;;;;;;;;5060092;28;5059;-57
2023/08/14 04:37:46;;;;;;;;;;;;;;;;;;5037827;28;4903;-57
2023/08/14 04:40:12;;;;;;;;;;;;;;;;;;5045969;28;1339;-58
2023/08/14 04:42:37;;;;;;;;;;;;;;;;;;5045711;28;4948;-57
2023/08/14 04:45:02;;;;;;;;;;;;;;;;;;5048274;28;4952;-57
2023/08/14 04:47:28;;;;;;;;;;;;;;;;;;5038098;28;4427;-58
2023/08/14 04:49:53;;;;;;;;;;;;;;;;;;5048366;28;5072;-57
2023/08/14 04:52:20;;;;;;;;;;;;;;;;;;5048051;28;4960;-57
2023/08/14 04:54:45;;;;;;;;;;;;;;;;;;5048770;28;5412;-56
2023/08/14 04:57:11;;;;;;;;;;;;;;;;;;5039872;28;5031;-57
2023/08/14 04:59:36;;;;;;;;;;;;;;;;;;5048602;28;4955;-56
2023/08/14 05:02:01;;;;;;;;;;;;;;;;;;5048438;28;5090;-56
2023/08/14 05:04:26;;;;;;;;;;;;;;;;;;5046683;28;4999;-57
2023/08/14 05:06:51;;;;;;;;;;;;;;;;;;5041972;28;1325;-56
2023/08/14 05:09:17;;;;;;;;;;;;;;;;;;5029107;28;4666;-56
2023/08/14 05:11:43;;;;;;;;;;;;;;;;;;5048234;28;5010;-56
2023/08/14 05:14:08;;;;;;;;;;;;;;;;;;5041007;28;5058;-56
2023/08/14 05:16:33;;;;;;;;;;;;;;;;;;5047746;28;5138;-56
2023/08/14 05:18:58;;;;;;;;;;;;;;;;;;5048604;28;1267;-56
2023/08/14 05:21:24;;;;;;;;;;;;;;;;;;5047639;28;4834;-57
2023/08/14 05:23:49;;;;;;;;;;;;;;;;;;5038868;28;5395;-56
2023/08/14 05:26:14;;;;;;;;;;;;;;;;;;5048027;28;5060;-56
2023/08/14 05:28:39;;;;;;;;;;;;;;;;;;5047454;28;4483;-57
2023/08/14 05:31:08;;;;;;;;;;;;;;;;;;5048696;28;1169;-57
2023/08/14 05:33:33;;;;;;;;;;;;;;;;;;5045086;28;4394;-57
2023/08/14 05:35:58;;;;;;;;;;;;;;;;;;5041950;28;5064;-57
2023/08/14 05:38:24;;;;;;;;;;;;;;;;;;5047101;28;5050;-56
2023/08/14 05:40:49;;;;;;;;;;;;;;;;;;5042216;28;4542;-56
2023/08/14 05:43:14;;;;;;;;;;;;;;;;;;5044469;28;1891;-57
2023/08/14 05:45:43;;;;;;;;;;;;;;;;;;5048189;28;4937;-57
2023/08/14 05:48:08;;;;;;;;;;;;;;;;;;5040007;28;5237;-56
2023/08/14 05:50:33;;;;;;;;;;;;;;;;;;5065522;28;4631;-57
2023/08/14 05:53:00;;;;;;;;;;;;;;;;;;5067485;28;5064;-57
2023/08/14 05:55:26;;;;;;;;;;;;;;;;;;5067241;28;5212;-56
2023/08/14 05:57:51;;;;;;;;;;;;;;;;;;5067153;28;1160;-55
2023/08/14 06:00:16;;;;;;;;;;;;;;;;;;5057866;28;5240;-56
2023/08/14 06:02:42;;;;;;;;;;;;;;;;;;5059245;28;5024;-57
2023/08/14 06:05:08;;;;;;;;;;;;;;;;;;5068082;28;5072;-57
2023/08/14 06:07:33;;;;;;;;;;;;;;;;;;5064234;28;4467;-57
2023/08/14 06:09:58;;;;;;;;;;;;;;;;;;5068586;28;1128;-57
2023/08/14 06:12:24;;;;;;;;;;;;;;;;;;5066477;28;4920;-57
2023/08/14 06:14:49;;;;;;;;;;;;;;;;;;5061168;28;4638;-57
2023/08/14 06:17:14;;;;;;;;;;;;;;;;;;5057450;28;4468;-57
2023/08/14 06:19:40;;;;;;;;;;;;;;;;;;5068515;28;4441;-58
2023/08/14 06:22:05;;;;;;;;;;;;;;;;;;5071846;28;1130;-57
2023/08/14 06:24:31;;;;;;;;;;;;;;;;;;5071235;28;4955;-57
2023/08/14 06:26:56;;;;;;;;;;;;;;;;;;5068300;28;5130;-57
2023/08/14 06:29:21;;;;;;;;;;;;;;;;;;5071332;28;5075;-58
2023/08/14 06:31:46;;;;;;;;;;;;;;;;;;5066199;28;4873;-57
2023/08/14 06:34:12;;;;;;;;;;;;;;;;;;5070704;28;1105;-58
2023/08/14 06:36:37;;;;;;;;;;;;;;;;;;5065656;28;4495;-57
2023/08/14 06:39:02;;;;;;;;;;;;;;;;;;5070637;28;4855;-57
2023/08/14 06:41:28;;;;;;;;;;;;;;;;;;5070668;28;5039;-57
2023/08/14 06:43:53;;;;;;;;;;;;;;;;;;5059939;28;4909;-57
2023/08/14 06:46:18;;;;;;;;;;;;;;;;;;5069734;28;5008;-57
2023/08/14 06:48:44;;;;;;;;;;;;;;;;;;5049464;28;1101;-57
2023/08/14 06:51:09;;;;;;;;;;;;;;;;;;5050790;28;5441;-55
2023/08/14 06:53:34;;;;;;;;;;;;;;;;;;5045377;28;6013;-55
2023/08/14 06:55:59;;;;;;;;;;;;;;;;;;5050452;28;5595;-56
2023/08/14 06:58:24;;;;;;;;;;;;;;;;;;5050501;28;4940;-57
2023/08/14 07:00:50;;;;;;;;;;;;;;;;;;5051915;28;1229;-55
2023/08/14 07:03:15;;;;;;;;;;;;;;;;;;5060223;28;5030;-57
2023/08/14 07:05:40;;;;;;;;;;;;;;;;;;5062821;28;5228;-57
2023/08/14 07:08:06;;;;;;;;;;;;;;;;;;5052531;28;4993;-56
2023/08/14 07:10:31;;;;;;;;;;;;;;;;;;5067258;28;5108;-57
2023/08/14 07:12:56;;;;;;;;;;;;;;;;;;5045403;28;1441;-57
2023/08/14 07:15:21;;;;;;;;;;;;;;;;;;5050297;28;5094;-57
2023/08/14 07:17:47;;;;;;;;;;;;;;;;;;5031778;28;4894;-57
2023/08/14 07:20:12;;;;;;;;;;;;;;;;;;5041447;28;5136;-58
2023/08/14 07:22:37;;;;;;;;;;;;;;;;;;5065218;28;5044;-56
2023/08/14 07:25:03;;;;;;;;;;;;;;;;;;5050791;28;1585;-57
2023/08/14 07:27:29;;;;;;;;;;;;;;;;;;5034160;28;5004;-56
2023/08/14 07:29:54;;;;;;;;;;;;;;;;;;5061654;28;4986;-57
2023/08/14 07:32:19;;;;;;;;;;;;;;;;;;5060218;28;4961;-57
2023/08/14 07:34:44;;;;;;;;;;;;;;;;;;5053985;28;4864;-57
2023/08/14 07:37:10;;;;;;;;;;;;;;;;;;5069724;28;1140;-58
2023/08/14 07:39:35;;;;;;;;;;;;;;;;;;5064976;28;5054;-57
2023/08/14 07:42:00;;;;;;;;;;;;;;;;;;5041312;28;4994;-56
2023/08/14 07:44:25;;;;;;;;;;;;;;;;;;5047811;28;5011;-56
2023/08/14 07:46:51;;;;;;;;;;;;;;;;;;5045566;28;4870;-57
2023/08/14 07:49:16;;;;;;;;;;;;;;;;;;5033053;28;5122;-57
2023/08/14 07:51:41;;;;;;;;;;;;;;;;;;5049701;28;1298;-57
2023/08/14 07:54:06;;;;;;;;;;;;;;;;;;5049622;28;5322;-57
2023/08/14 07:56:32;;;;;;;;;;;;;;;;;;5040109;28;5447;-57
2023/08/14 07:58:57;;;;;;;;;;;;;;;;;;5048904;28;4535;-57
2023/08/14 08:01:22;;;;;;;;;;;;;;;;;;5049361;28;5061;-57
2023/08/14 08:03:47;;;;;;;;;;;;;;;;;;5049772;28;1969;-57
2023/08/14 08:06:13;;;;;;;;;;;;;;;;;;5040190;28;5038;-57
2023/08/14 08:08:38;;;;;;;;;;;;;;;;;;5044148;28;5528;-57
2023/08/14 08:11:03;;;;;;;;;;;;;;;;;;5046283;28;4890;-57
2023/08/14 08:13:28;;;;;;;;;;;;;;;;;;5040966;28;5583;-57
2023/08/14 08:15:54;;;;;;;;;;;;;;;;;;5047148;28;1263;-57
2023/08/14 08:18:19;;;;;;;;;;;;;;;;;;5050068;28;4579;-57
2023/08/14 08:20:44;;;;;;;;;;;;;;;;;;5049162;28;5200;-57
2023/08/14 08:23:09;;;;;;;;;;;;;;;;;;5040455;28;4859;-57
2023/08/14 08:25:35;;;;;;;;;;;;;;;;;;5048867;28;4965;-57
2023/08/14 08:28:00;;;;;;;;;;;;;;;;;;5049709;28;1161;-57
2023/08/14 08:30:25;;;;;;;;;;;;;;;;;;5046708;28;5057;-58
2023/08/14 08:32:50;;;;;;;;;;;;;;;;;;5054959;28;5192;-58
2023/08/14 08:35:16;;;;;;;;;;;;;;;;;;5060329;28;4633;-58
2023/08/14 08:37:41;;;;;;;;;;;;;;;;;;5050172;28;5114;-58
2023/08/14 08:40:07;;;;;;;;;;;;;;;;;;5050235;28;1377;-58
2023/08/14 08:42:32;;;;;;;;;;;;;;;;;;5039422;28;4946;-57
2023/08/14 08:44:59;;;;;;;;;;;;;;;;;;5060304;28;5209;-57
2023/08/14 08:47:24;;;;;;;;;;;;;;;;;;5072252;28;5220;-57
2023/08/14 08:49:49;;;;;;;;;;;;;;;;;;5047184;28;5101;-57
2023/08/14 08:52:14;;;;;;;;;;;;;;;;;;5046050;28;1342;-57
2023/08/14 08:54:40;;;;;;;;;;;;;;;;;;5047786;28;4952;-59
2023/08/14 08:57:05;;;;;;;;;;;;;;;;;;5048469;28;5052;-58
2023/08/14 08:59:31;;;;;;;;;;;;;;;;;;5038992;28;4627;-57
2023/08/14 09:01:56;;;;;;;;;;;;;;;;;;5048214;28;5072;-57
2023/08/14 09:04:21;;;;;;;;;;;;;;;;;;5063397;28;4458;-58
2023/08/14 09:06:47;;;;;;;;;;;;;;;;;;5049067;28;1248;-57
2023/08/14 09:09:12;;;;;;;;;;;;;;;;;;5045487;28;4570;-58
2023/08/14 09:11:38;;;;;;;;;;;;;;;;;;5063319;28;4469;-57
2023/08/14 09:14:03;;;;;;;;;;;;;;;;;;5040981;28;5095;-58
2023/08/14 09:16:28;;;;;;;;;;;;;;;;;;5044194;28;4982;-58
2023/08/14 09:19:00;;;;;;;;;;;;;;;;;;5044316;28;1299;-58
2023/08/14 09:21:28;;;;;;;;;;;;;;;;;;5039934;28;4864;-57
2023/08/14 09:23:54;;;;;;;;;;;;;;;;;;5047961;28;4478;-57
2023/08/14 09:26:19;;;;;;;;;;;;;;;;;;5046640;28;5074;-57
2023/08/14 09:28:44;;;;;;;;;;;;;;;;;;5063074;28;4882;-57
2023/08/14 09:31:12;;;;;;;;;;;;;;;;;;5048572;28;1086;-57
2023/08/14 09:33:38;;;;;;;;;;;;;;;;;;5042049;28;4933;-57
2023/08/14 09:36:03;;;;;;;;;;;;;;;;;;5044208;28;4636;-57
2023/08/14 09:38:31;;;;;;;;;;;;;;;;;;5047425;28;4822;-56
2023/08/14 09:40:57;;;;;;;;;;;;;;;;;;5048099;28;5024;-56
2023/08/14 09:43:23;;;;;;;;;;;;;;;;;;5041032;28;5088;-57
2023/08/14 09:45:48;;;;;;;;;;;;;;;;;;5042366;28;1140;-56
2023/08/14 09:48:13;;;;;;;;;;;;;;;;;;5043637;28;5061;-57
2023/08/14 09:50:38;;;;;;;;;;;;;;;;;;5047257;28;4983;-57
2023/08/14 09:53:04;;;;;;;;;;;;;;;;;;5039999;28;4984;-57
2023/08/14 09:55:30;;;;;;;;;;;;;;;;;;5046796;28;5133;-57
2023/08/14 09:57:56;;;;;;;;;;;;;;;;;;5063435;28;1459;-56
2023/08/14 10:00:22;;;;;;;;;;;;;;;;;;5047501;28;5013;-57
2023/08/14 10:02:47;;;;;;;;;;;;;;;;;;5028684;28;4487;-57
2023/08/14 10:05:12;;;;;;;;;;;;;;;;;;5047538;28;5008;-57
2023/08/14 10:07:38;;;;;;;;;;;;;;;;;;5044421;28;5361;-57
2023/08/14 10:10:04;;;;;;;;;;;;;;;;;;5029095;28;1280;-56
2023/08/14 10:12:30;;;;;;;;;;;;;;;;;;5068697;28;4972;-57
2023/08/14 10:15:00;;;;;;;;;;;;;;;;;;5058866;28;5132;-57
2023/08/14 10:17:29;;;;;;;;;;;;;;;;;;5066840;28;4871;-57
2023/08/14 10:19:54;;;;;;;;;;;;;;;;;;5055375;28;5072;-57
2023/08/14 10:22:19;;;;;;;;;;;;;;;;;;5060118;28;5033;-58
2023/08/14 10:24:45;;;;;;;;;;;;;;;;;;5047403;28;1969;-56
2023/08/14 10:27:10;;;;;;;;;;;;;;;;;;5047173;28;5073;-58
2023/08/14 10:29:35;;;;;;;;;;;;;;;;;;5044064;28;4874;-57
2023/08/14 10:32:01;;;;;;;;;;;;;;;;;;5045660;28;4900;-57
2023/08/14 10:34:26;;;;;;;;;;;;;;;;;;5029281;28;5055;-57
2023/08/14 10:36:51;;;;;;;;;;;;;;;;;;5047377;28;1125;-57
2023/08/14 10:39:16;;;;;;;;;;;;;;;;;;5042526;28;4553;-57
2023/08/14 10:41:42;;;;;;;;;;;;;;;;;;5047218;28;4977;-57
2023/08/14 10:44:08;;;;;;;;;;;;;;;;;;5042877;28;5172;-57
2023/08/14 10:46:40;;;;;;;;;;;;;;;;;;5042973;28;5721;-56
2023/08/14 10:49:05;;;;;;;;;;;;;;;;;;5043283;28;2224;-56
2023/08/14 10:51:31;;;;;;;;;;;;;;;;;;5046726;28;4980;-56
2023/08/14 10:54:14;;;;;;;;;;;;;;;;;;5046892;28;4909;-57
2023/08/14 10:56:41;;;;;;;;;;;;;;;;;;5041456;28;4461;-56
2023/08/14 10:59:17;;;;;;;;;;;;;;;;;;5046455;28;4484;-57
2023/08/14 11:01:42;;;;;;;;;;;;;;;;;;5046581;28;4476;-57
2023/08/14 11:04:08;;;;;;;;;;;;;;;;;;5062054;28;1914;-58
2023/08/14 11:06:48;;;;;;;;;;;;;;;;;;5045914;28;4930;-56
2023/08/14 11:09:14;;;;;;;;;;;;;;;;;;5050284;28;5036;-58
2023/08/14 11:11:42;;;;;;;;;;;;;;;;;;5065986;28;5039;-57
2023/08/14 11:14:07;;;;;;;;;;;;;;;;;;5051198;28;5042;-57
2023/08/14 11:16:32;;;;;;;;;;;;;;;;;;5050168;28;5060;-57
2023/08/14 11:18:58;;;;;;;;;;;;;;;;;;5066086;28;1184;-56
2023/08/14 11:21:23;;;;;;;;;;;;;;;;;;5049644;28;4662;-57
2023/08/14 11:23:48;;;;;;;;;;;;;;;;;;5048084;28;4990;-57
2023/08/14 11:26:13;;;;;;;;;;;;;;;;;;5044093;28;4608;-57
2023/08/14 11:28:39;;;;;;;;;;;;;;;;;;5046073;28;4597;-57
2023/08/14 11:31:04;;;;;;;;;;;;;;;;;;5050268;28;1379;-57
2023/08/14 11:33:30;;;;;;;;;;;;;;;;;;5046316;28;5001;-57
2023/08/14 11:35:55;;;;;;;;;;;;;;;;;;5064357;28;5051;-57
2023/08/14 11:38:21;;;;;;;;;;;;;;;;;;5069587;28;4967;-57
2023/08/14 11:40:46;;;;;;;;;;;;;;;;;;5068126;28;5160;-56
2023/08/14 11:43:12;;;;;;;;;;;;;;;;;;5060213;28;2520;-57
2023/08/14 11:45:37;;;;;;;;;;;;;;;;;;5065943;28;5001;-56
2023/08/14 11:48:03;;;;;;;;;;;;;;;;;;5029431;28;4977;-55
2023/08/14 11:50:28;;;;;;;;;;;;;;;;;;5040647;28;4705;-56
2023/08/14 11:52:53;;;;;;;;;;;;;;;;;;5049224;28;5772;-56
2023/08/14 11:55:19;;;;;;;;;;;;;;;;;;5047936;28;5086;-56
2023/08/14 11:57:44;;;;;;;;;;;;;;;;;;5037582;28;1547;-56
2023/08/14 12:00:10;;;;;;;;;;;;;;;;;;5040791;28;4467;-56
2023/08/14 12:02:35;;;;;;;;;;;;;;;;;;5049021;28;4985;-57
2023/08/14 12:05:00;;;;;;;;;;;;;;;;;;5048121;28;4961;-56
2023/08/14 12:07:26;;;;;;;;;;;;;;;;;;5046655;28;6324;-56
2023/08/14 12:09:54;;;;;;;;;;;;;;;;;;5041864;28;1152;-56
2023/08/14 12:12:20;;;;;;;;;;;;;;;;;;5049386;28;5106;-56
2023/08/14 12:14:46;;;;;;;;;;;;;;;;;;5044829;28;4991;-56
2023/08/14 12:17:11;;;;;;;;;;;;;;;;;;5041204;28;4470;-56
2023/08/14 12:19:37;;;;;;;;;;;;;;;;;;5049281;28;5093;-56
2023/08/14 12:22:02;;;;;;;;;;;;;;;;;;5049589;28;1173;-56
2023/08/14 12:24:35;;;;;;;;;;;;;;;;;;5048775;28;5786;-56
2023/08/14 12:27:00;;;;;;;;;;;;;;;;;;5047813;28;4936;-55
2023/08/14 12:29:25;;;;;;;;;;;;;;;;;;5030851;28;5089;-56
2023/08/14 12:31:51;;;;;;;;;;;;;;;;;;5063577;28;4461;-56
2023/08/14 12:34:18;;;;;;;;;;;;;;;;;;5047715;28;5322;-56
2023/08/14 12:36:43;;;;;;;;;;;;;;;;;;5045648;28;1264;-56
2023/08/14 12:39:08;;;;;;;;;;;;;;;;;;5046410;28;5824;-56
2023/08/14 12:41:33;;;;;;;;;;;;;;;;;;5057824;28;5080;-55
2023/08/14 12:43:59;;;;;;;;;;;;;;;;;;5039472;28;5108;-56
2023/08/14 12:46:24;;;;;;;;;;;;;;;;;;5046616;28;4451;-56
2023/08/14 12:48:49;;;;;;;;;;;;;;;;;;5047734;28;1128;-55
2023/08/14 12:51:14;;;;;;;;;;;;;;;;;;5046142;28;4943;-59
2023/08/14 12:53:40;;;;;;;;;;;;;;;;;;5041063;28;4477;-57
2023/08/14 12:56:05;;;;;;;;;;;;;;;;;;5048395;28;5538;-57
2023/08/14 12:58:30;;;;;;;;;;;;;;;;;;5048520;28;5068;-57
2023/08/14 13:00:55;;;;;;;;;;;;;;;;;;5049317;28;1295;-57
2023/08/14 13:03:21;;;;;;;;;;;;;;;;;;5030881;28;5495;-57
2023/08/14 13:05:46;;;;;;;;;;;;;;;;;;5044870;28;5032;-55
2023/08/14 13:08:11;;;;;;;;;;;;;;;;;;5047914;28;4524;-57
2023/08/14 13:10:36;;;;;;;;;;;;;;;;;;5047091;28;5063;-58
2023/08/14 13:13:02;;;;;;;;;;;;;;;;;;5081970;28;1423;-56
2023/08/14 13:15:28;;;;;;;;;;;;;;;;;;5049570;28;4830;-56
2023/08/14 13:17:53;;;;;;;;;;;;;;;;;;5061515;28;5119;-56
2023/08/14 13:20:18;;;;;;;;;;;;;;;;;;5048321;28;5083;-56
2023/08/14 13:22:44;;;;;;;;;;;;;;;;;;5048229;28;4899;-56
2023/08/14 13:25:09;;;;;;;;;;;;;;;;;;5048165;28;1487;-56
2023/08/14 13:27:34;;;;;;;;;;;;;;;;;;5039592;28;4487;-56
2023/08/14 13:30:00;;;;;;;;;;;;;;;;;;5038654;28;4683;-56
2023/08/14 13:32:26;;;;;;;;;;;;;;;;;;5047199;28;5743;-56
2023/08/14 13:34:51;;;;;;;;;;;;;;;;;;5043431;28;5122;-55
2023/08/14 13:37:17;;;;;;;;;;;;;;;;;;5045737;28;5584;-56
2023/08/14 13:39:43;;;;;;;;;;;;;;;;;;5044296;28;1259;-56
2023/08/14 13:42:08;;;;;;;;;;;;;;;;;;5029385;28;5083;-55
2023/08/14 13:44:34;;;;;;;;;;;;;;;;;;5046310;28;5013;-55
2023/08/14 13:46:59;;;;;;;;;;;;;;;;;;5038727;28;5480;-57
2023/08/14 13:49:24;;;;;;;;;;;;;;;;;;5043691;28;5050;-56
2023/08/14 13:51:50;;;;;;;;;;;;;;;;;;5047765;28;1420;-55
2023/08/14 13:54:15;;;;;;;;;;;;;;;;;;5047317;28;5272;-56
2023/08/14 13:56:40;;;;;;;;;;;;;;;;;;5039330;28;4608;-56
2023/08/14 13:59:05;;;;;;;;;;;;;;;;;;5047730;28;5008;-56
2023/08/14 14:01:31;;;;;;;;;;;;;;;;;;5043612;28;5118;-58
2023/08/14 14:03:56;;;;;;;;;;;;;;;;;;5048333;28;1906;-57
2023/08/14 14:06:21;;;;;;;;;;;;;;;;;;5038734;28;5103;-57
2023/08/14 14:08:46;;;;;;;;;;;;;;;;;;5047684;28;4662;-57
2023/08/14 14:11:12;;;;;;;;;;;;;;;;;;5045927;28;5045;-58
2023/08/14 14:13:37;;;;;;;;;;;;;;;;;;5041515;28;4981;-57
2023/08/14 14:16:03;;;;;;;;;;;;;;;;;;5046637;28;1315;-58
2023/08/14 14:18:28;;;;;;;;;;;;;;;;;;5047485;28;5026;-57
2023/08/14 14:20:53;;;;;;;;;;;;;;;;;;5047145;28;4951;-57
2023/08/14 14:23:19;;;;;;;;;;;;;;;;;;5046333;28;4468;-58
2023/08/14 14:25:44;;;;;;;;;;;;;;;;;;5047166;28;4968;-57
2023/08/14 14:28:09;;;;;;;;;;;;;;;;;;5047857;28;1263;-57
2023/08/14 14:30:35;;;;;;;;;;;;;;;;;;5046866;28;5034;-57
2023/08/14 14:33:01;;;;;;;;;;;;;;;;;;5043519;28;5263;-57
2023/08/14 14:35:26;;;;;;;;;;;;;;;;;;5046982;28;4617;-58
2023/08/14 14:37:52;;;;;;;;;;;;;;;;;;5052406;28;4522;-57
2023/08/14 14:40:17;;;;;;;;;;;;;;;;;;5065408;28;5027;-58
2023/08/14 14:42:42;;;;;;;;;;;;;;;;;;5067072;28;2033;-58
2023/08/14 14:45:08;;;;;;;;;;;;;;;;;;5063992;28;4941;-57
2023/08/14 14:47:33;;;;;;;;;;;;;;;;;;5068417;28;5143;-55
2023/08/14 14:49:58;;;;;;;;;;;;;;;;;;5069435;28;4448;-57
2023/08/14 14:52:23;;;;;;;;;;;;;;;;;;5056319;28;5018;-56
2023/08/14 14:54:49;;;;;;;;;;;;;;;;;;5052684;28;5269;-56
2023/08/14 14:57:14;;;;;;;;;;;;;;;;;;5070447;28;5028;-57
2023/08/14 14:59:42;;;;;;;;;;;;;;;;;;5047494;28;5117;-56
2023/08/14 15:02:07;;;;;;;;;;;;;;;;;;5063666;28;4982;-56
2023/08/14 15:04:33;;;;;;;;;;;;;;;;;;5050215;28;4826;-57
2023/08/14 15:06:58;;;;;;;;;;;;;;;;;;5033041;28;1137;-56
2023/08/14 15:09:23;;;;;;;;;;;;;;;;;;5047620;28;4921;-57
2023/08/14 15:11:49;;;;;;;;;;;;;;;;;;5046351;28;4870;-57
2023/08/14 15:14:14;;;;;;;;;;;;;;;;;;5044236;28;5060;-57
2023/08/14 15:16:39;;;;;;;;;;;;;;;;;;5045221;28;4471;-56
2023/08/14 15:19:04;;;;;;;;;;;;;;;;;;5048050;28;1263;-57
2023/08/14 15:21:30;;;;;;;;;;;;;;;;;;5050514;28;4569;-56
2023/08/14 15:23:55;;;;;;;;;;;;;;;;;;5056084;28;4969;-56
2023/08/14 15:26:20;;;;;;;;;;;;;;;;;;5047527;28;5219;-57
2023/08/14 15:28:45;;;;;;;;;;;;;;;;;;5049485;28;5122;-55
2023/08/14 15:31:11;;;;;;;;;;;;;;;;;;5050662;28;1226;-55
2023/08/14 15:33:36;;;;;;;;;;;;;;;;;;5049549;28;4966;-58
2023/08/14 15:36:01;;;;;;;;;;;;;;;;;;5045042;28;5190;-56
2023/08/14 15:38:26;;;;;;;;;;;;;;;;;;5049441;28;5169;-56
2023/08/14 15:40:52;;;;;;;;;;;;;;;;;;5048760;28;5136;-56
2023/08/14 15:43:17;;;;;;;;;;;;;;;;;;5045706;28;5381;-56
2023/08/14 15:45:42;;;;;;;;;;;;;;;;;;5036116;28;1109;-56
2023/08/14 15:48:08;;;;;;;;;;;;;;;;;;5063268;28;4970;-55
2023/08/14 15:50:33;;;;;;;;;;;;;;;;;;5059258;28;5105;-55
2023/08/14 15:52:58;;;;;;;;;;;;;;;;;;5052492;28;5122;-57
2023/08/14 15:55:23;;;;;;;;;;;;;;;;;;5063892;28;5231;-58
2023/08/14 15:57:49;;;;;;;;;;;;;;;;;;5069792;28;1085;-56
2023/08/14 16:00:15;;;;;;;;;;;;;;;;;;5069448;28;4643;-57
2023/08/14 16:02:40;;;;;;;;;;;;;;;;;;5060448;28;4978;-57
2023/08/14 16:05:05;;;;;;;;;;;;;;;;;;5069085;28;4580;-56
2023/08/14 16:07:31;;;;;;;;;;;;;;;;;;5069374;28;4986;-56
2023/08/14 16:09:56;;;;;;;;;;;;;;;;;;5061884;28;1386;-56
2023/08/14 16:12:21;;;;;;;;;;;;;;;;;;5064940;28;5214;-57
2023/08/14 16:14:46;;;;;;;;;;;;;;;;;;5065044;28;5265;-56
2023/08/14 16:17:12;;;;;;;;;;;;;;;;;;5068918;28;5010;-57
2023/08/14 16:19:37;;;;;;;;;;;;;;;;;;5064708;28;4420;-56
2023/08/14 16:22:03;;;;;;;;;;;;;;;;;;5079433;28;1167;-56
2023/08/14 16:24:28;;;;;;;;;;;;;;;;;;5069144;28;5011;-56
2023/08/14 16:26:53;;;;;;;;;;;;;;;;;;5069229;28;4479;-57
2023/08/14 16:29:20;;;;;;;;;;;;;;;;;;5066913;28;4995;-56
2023/08/14 16:31:45;;;;;;;;;;;;;;;;;;5068523;28;5061;-56
2023/08/14 16:34:10;;;;;;;;;;;;;;;;;;5069444;28;1272;-56
2023/08/14 16:36:35;;;;;;;;;;;;;;;;;;5063588;28;4574;-56
2023/08/14 16:39:01;;;;;;;;;;;;;;;;;;5061633;28;4906;-56
2023/08/14 16:41:26;;;;;;;;;;;;;;;;;;5065573;28;4791;-56
2023/08/14 16:43:51;;;;;;;;;;;;;;;;;;5067459;28;5026;-56
2023/08/14 16:46:16;;;;;;;;;;;;;;;;;;5067335;28;4951;-56
2023/08/14 16:48:42;;;;;;;;;;;;;;;;;;5061041;28;1097;-57
2023/08/14 16:51:07;;;;;;;;;;;;;;;;;;5062457;28;5415;-57